sensor_id;sensor_type;location;lat;lon;timestamp;temperature;humidity
11908;DHT22;6014;47.690;9.130;2023-05-23T00:02:10;14.90;99.90
11908;DHT22;6014;47.690;9.130;2023-05-23T00:04:39;14.90;99.90
11908;DHT22;6014;47.690;9.130;2023-05-23T00:07:09;14.90;99.90
11908;DHT22;6014;47.690;9.130;2023-05-23T00:09:38;14.80;99.90
11908;DHT22;6014;47.690;9.130;2023-05-23T00:12:07;14.90;99.90
11908;DHT22;6014;47.690;9.130;2023-05-23T00:14:35;14.80;99.90
11908;DHT22;6014;47.690;9.130;2023-05-23T00:17:06;14.70;99.90
11908;DHT22;6014;47.690;9.130;2023-05-23T00:19:36;14.70;99.90
11908;DHT22;6014;47.690;9.130;2023-05-23T00:22:05;14.70;99.90
11908;DHT22;6014;47.690;9.130;2023-05-23T00:24:33;14.60;99.90
11908;DHT22;6014;47.690;9.130;2023-05-23T00:27:04;14.50;99.90
11908;DHT22;6014;47.690;9.130;2023-05-23T00:29:32;14.50;99.90
11908;DHT22;6014;47.690;9.130;2023-05-23T00:32:01;14.40;99.90
11908;DHT22;6014;47.690;9.130;2023-05-23T00:34:29;14.40;99.90
11908;DHT22;6014;47.690;9.130;2023-05-23T00:36:57;14.40;99.90
11908;DHT22;6014;47.690;9.130;2023-05-23T00:39:27;14.40;99.90
11908;DHT22;6014;47.690;9.130;2023-05-23T00:41:57;14.40;99.90
11908;DHT22;6014;47.690;9.130;2023-05-23T00:44:26;14.30;99.90
11908;DHT22;6014;47.690;9.130;2023-05-23T00:46:56;14.30;99.90
11908;DHT22;6014;47.690;9.130;2023-05-23T00:49:25;14.20;99.90
11908;DHT22;6014;47.690;9.130;2023-05-23T00:51:54;14.30;99.90
11908;DHT22;6014;47.690;9.130;2023-05-23T00:54:25;14.30;99.90
11908;DHT22;6014;47.690;9.130;2023-05-23T00:56:57;14.40;99.90
11908;DHT22;6014;47.690;9.130;2023-05-23T00:59:27;14.50;99.90
11908;DHT22;6014;47.690;9.130;2023-05-23T01:01:56;14.50;99.90
11908;DHT22;6014;47.690;9.130;2023-05-23T01:04:26;14.40;99.90
11908;DHT22;6014;47.690;9.130;2023-05-23T01:06:55;14.40;99.90
11908;DHT22;6014;47.690;9.130;2023-05-23T01:09:27;14.20;99.90
11908;DHT22;6014;47.690;9.130;2023-05-23T01:12:12;13.90;99.90
11908;DHT22;6014;47.690;9.130;2023-05-23T01:14:48;13.90;99.90
11908;DHT22;6014;47.690;9.130;2023-05-23T01:17:20;13.90;99.90
11908;DHT22;6014;47.690;9.130;2023-05-23T01:19:58;14.00;99.90
11908;DHT22;6014;47.690;9.130;2023-05-23T01:22:37;14.00;99.90
11908;DHT22;6014;47.690;9.130;2023-05-23T01:25:22;14.00;99.90
11908;DHT22;6014;47.690;9.130;2023-05-23T01:27:58;14.00;99.90
11908;DHT22;6014;47.690;9.130;2023-05-23T01:30:30;14.10;99.90
11908;DHT22;6014;47.690;9.130;2023-05-23T01:33:00;14.00;99.90
11908;DHT22;6014;47.690;9.130;2023-05-23T01:35:30;14.10;99.90
11908;DHT22;6014;47.690;9.130;2023-05-23T01:37:59;14.20;99.90
11908;DHT22;6014;47.690;9.130;2023-05-23T01:40:28;14.10;99.90
11908;DHT22;6014;47.690;9.130;2023-05-23T01:43:00;14.00;99.90
11908;DHT22;6014;47.690;9.130;2023-05-23T01:45:29;14.00;99.90
11908;DHT22;6014;47.690;9.130;2023-05-23T01:47:58;14.00;99.90
11908;DHT22;6014;47.690;9.130;2023-05-23T01:50:27;14.00;99.90
11908;DHT22;6014;47.690;9.130;2023-05-23T01:52:56;14.00;99.90
11908;DHT22;6014;47.690;9.130;2023-05-23T01:55:24;13.90;99.90
11908;DHT22;6014;47.690;9.130;2023-05-23T01:57:54;13.90;99.90
11908;DHT22;6014;47.690;9.130;2023-05-23T02:00:24;13.90;99.90
11908;DHT22;6014;47.690;9.130;2023-05-23T02:02:52;13.80;99.90
11908;DHT22;6014;47.690;9.130;2023-05-23T02:05:21;13.90;99.90
11908;DHT22;6014;47.690;9.130;2023-05-23T02:08:00;13.90;99.90
11908;DHT22;6014;47.690;9.130;2023-05-23T02:10:29;13.90;99.90
11908;DHT22;6014;47.690;9.130;2023-05-23T02:12:58;13.90;99.90
11908;DHT22;6014;47.690;9.130;2023-05-23T02:15:29;13.90;99.90
11908;DHT22;6014;47.690;9.130;2023-05-23T02:17:58;13.90;99.90
11908;DHT22;6014;47.690;9.130;2023-05-23T02:20:28;13.80;99.90
11908;DHT22;6014;47.690;9.130;2023-05-23T02:22:56;13.80;99.90
11908;DHT22;6014;47.690;9.130;2023-05-23T02:25:24;13.70;99.90
11908;DHT22;6014;47.690;9.130;2023-05-23T02:27:52;13.70;99.90
11908;DHT22;6014;47.690;9.130;2023-05-23T02:30:30;13.70;99.90
11908;DHT22;6014;47.690;9.130;2023-05-23T02:33:03;13.80;99.90
11908;DHT22;6014;47.690;9.130;2023-05-23T02:35:31;13.80;99.90
11908;DHT22;6014;47.690;9.130;2023-05-23T02:38:27;13.90;99.90
11908;DHT22;6014;47.690;9.130;2023-05-23T02:41:22;13.90;99.90
11908;DHT22;6014;47.690;9.130;2023-05-23T02:44:14;13.70;99.90
11908;DHT22;6014;47.690;9.130;2023-05-23T02:46:59;13.80;99.90
11908;DHT22;6014;47.690;9.130;2023-05-23T02:49:30;13.80;99.90
11908;DHT22;6014;47.690;9.130;2023-05-23T02:52:19;13.70;99.90
11908;DHT22;6014;47.690;9.130;2023-05-23T02:55:30;13.60;99.90
11908;DHT22;6014;47.690;9.130;2023-05-23T02:58:17;13.60;99.90
11908;DHT22;6014;47.690;9.130;2023-05-23T03:01:57;13.60;99.90
11908;DHT22;6014;47.690;9.130;2023-05-23T03:04:37;13.60;99.90
11908;DHT22;6014;47.690;9.130;2023-05-23T03:08:01;13.50;99.90
11908;DHT22;6014;47.690;9.130;2023-05-23T03:11:05;13.50;99.90
11908;DHT22;6014;47.690;9.130;2023-05-23T03:14:18;13.50;99.90
11908;DHT22;6014;47.690;9.130;2023-05-23T03:20:49;13.40;99.90
11908;DHT22;6014;47.690;9.130;2023-05-23T03:27:44;13.40;99.90
11908;DHT22;6014;47.690;9.130;2023-05-23T03:31:17;13.40;99.90
11908;DHT22;6014;47.690;9.130;2023-05-23T03:34:29;13.30;99.90
11908;DHT22;6014;47.690;9.130;2023-05-23T03:41:24;13.30;99.90
11908;DHT22;6014;47.690;9.130;2023-05-23T03:44:18;13.20;99.90
11908;DHT22;6014;47.690;9.130;2023-05-23T03:47:07;13.30;99.90
11908;DHT22;6014;47.690;9.130;2023-05-23T03:55:28;13.20;99.90
11908;DHT22;6014;47.690;9.130;2023-05-23T03:56:34;13.20;99.90
11908;DHT22;6014;47.690;9.130;2023-05-23T03:59:31;13.30;99.90
11908;DHT22;6014;47.690;9.130;2023-05-23T04:02:15;13.30;99.90
11908;DHT22;6014;47.690;9.130;2023-05-23T04:04:59;13.50;99.90
11908;DHT22;6014;47.690;9.130;2023-05-23T04:08:11;13.50;99.90
11908;DHT22;6014;47.690;9.130;2023-05-23T04:11:50;13.40;99.90
11908;DHT22;6014;47.690;9.130;2023-05-23T04:14:50;13.50;99.90
11908;DHT22;6014;47.690;9.130;2023-05-23T04:17:24;13.70;99.90
11908;DHT22;6014;47.690;9.130;2023-05-23T04:20:11;13.60;99.90
11908;DHT22;6014;47.690;9.130;2023-05-23T04:22:44;13.80;99.90
11908;DHT22;6014;47.690;9.130;2023-05-23T04:25:17;13.90;99.90
11908;DHT22;6014;47.690;9.130;2023-05-23T04:27:59;13.90;99.90
11908;DHT22;6014;47.690;9.130;2023-05-23T04:30:31;14.10;99.90
11908;DHT22;6014;47.690;9.130;2023-05-23T04:33:00;14.10;99.90
11908;DHT22;6014;47.690;9.130;2023-05-23T04:35:29;14.20;99.90
11908;DHT22;6014;47.690;9.130;2023-05-23T04:38:00;14.30;99.90
11908;DHT22;6014;47.690;9.130;2023-05-23T04:40:29;14.50;99.90
11908;DHT22;6014;47.690;9.130;2023-05-23T04:42:59;14.60;99.90
11908;DHT22;6014;47.690;9.130;2023-05-23T04:45:28;14.70;99.90
11908;DHT22;6014;47.690;9.130;2023-05-23T04:47:56;14.80;99.90
11908;DHT22;6014;47.690;9.130;2023-05-23T04:50:26;14.90;99.90
11908;DHT22;6014;47.690;9.130;2023-05-23T04:52:57;14.90;99.90
11908;DHT22;6014;47.690;9.130;2023-05-23T04:55:26;15.10;99.90
11908;DHT22;6014;47.690;9.130;2023-05-23T04:57:54;15.20;99.90
11908;DHT22;6014;47.690;9.130;2023-05-23T05:00:24;15.40;99.90
11908;DHT22;6014;47.690;9.130;2023-05-23T05:02:52;15.50;99.90
11908;DHT22;6014;47.690;9.130;2023-05-23T05:05:21;15.80;99.90
11908;DHT22;6014;47.690;9.130;2023-05-23T05:07:50;16.00;99.90
11908;DHT22;6014;47.690;9.130;2023-05-23T05:10:19;16.10;99.90
11908;DHT22;6014;47.690;9.130;2023-05-23T05:12:47;16.20;99.90
11908;DHT22;6014;47.690;9.130;2023-05-23T05:15:23;16.60;99.90
11908;DHT22;6014;47.690;9.130;2023-05-23T05:18:04;17.00;99.90
11908;DHT22;6014;47.690;9.130;2023-05-23T05:20:43;17.10;99.90
11908;DHT22;6014;47.690;9.130;2023-05-23T05:23:11;17.10;99.90
11908;DHT22;6014;47.690;9.130;2023-05-23T05:25:40;17.00;99.90
11908;DHT22;6014;47.690;9.130;2023-05-23T05:28:08;17.00;99.90
11908;DHT22;6014;47.690;9.130;2023-05-23T05:30:51;17.20;99.90
11908;DHT22;6014;47.690;9.130;2023-05-23T05:33:22;17.30;99.90
11908;DHT22;6014;47.690;9.130;2023-05-23T05:36:00;17.50;99.90
11908;DHT22;6014;47.690;9.130;2023-05-23T05:38:29;17.90;99.90
11908;DHT22;6014;47.690;9.130;2023-05-23T05:40:57;18.10;99.90
11908;DHT22;6014;47.690;9.130;2023-05-23T05:43:30;18.20;99.90
11908;DHT22;6014;47.690;9.130;2023-05-23T05:45:59;18.20;99.90
11908;DHT22;6014;47.690;9.130;2023-05-23T05:48:30;18.30;99.90
11908;DHT22;6014;47.690;9.130;2023-05-23T05:50:59;18.40;99.90
11908;DHT22;6014;47.690;9.130;2023-05-23T05:53:44;18.30;99.90
11908;DHT22;6014;47.690;9.130;2023-05-23T05:56:27;18.30;99.90
11908;DHT22;6014;47.690;9.130;2023-05-23T05:59:26;18.30;99.90
11908;DHT22;6014;47.690;9.130;2023-05-23T06:01:56;18.80;99.90
11908;DHT22;6014;47.690;9.130;2023-05-23T06:04:26;19.00;99.90
11908;DHT22;6014;47.690;9.130;2023-05-23T06:07:11;19.60;99.90
11908;DHT22;6014;47.690;9.130;2023-05-23T06:09:42;19.60;99.90
11908;DHT22;6014;47.690;9.130;2023-05-23T06:12:10;20.10;99.90
11908;DHT22;6014;47.690;9.130;2023-05-23T06:14:38;20.00;99.90
11908;DHT22;6014;47.690;9.130;2023-05-23T06:17:08;20.10;99.90
11908;DHT22;6014;47.690;9.130;2023-05-23T06:19:37;19.50;99.90
11908;DHT22;6014;47.690;9.130;2023-05-23T06:22:06;19.30;99.90
11908;DHT22;6014;47.690;9.130;2023-05-23T06:24:34;19.10;99.90
11908;DHT22;6014;47.690;9.130;2023-05-23T06:27:07;18.70;99.90
11908;DHT22;6014;47.690;9.130;2023-05-23T06:29:35;18.80;99.90
11908;DHT22;6014;47.690;9.130;2023-05-23T06:32:12;18.80;99.90
11908;DHT22;6014;47.690;9.130;2023-05-23T06:34:42;18.70;99.90
11908;DHT22;6014;47.690;9.130;2023-05-23T06:37:10;18.60;99.90
11908;DHT22;6014;47.690;9.130;2023-05-23T06:39:38;18.70;99.90
11908;DHT22;6014;47.690;9.130;2023-05-23T06:42:14;18.90;99.90
11908;DHT22;6014;47.690;9.130;2023-05-23T06:44:42;19.10;99.90
11908;DHT22;6014;47.690;9.130;2023-05-23T06:47:10;19.70;99.90
11908;DHT22;6014;47.690;9.130;2023-05-23T06:49:38;19.80;99.90
11908;DHT22;6014;47.690;9.130;2023-05-23T06:52:08;19.80;99.90
11908;DHT22;6014;47.690;9.130;2023-05-23T06:54:45;20.20;99.90
11908;DHT22;6014;47.690;9.130;2023-05-23T06:57:13;20.40;99.90
11908;DHT22;6014;47.690;9.130;2023-05-23T06:59:46;20.40;99.90
11908;DHT22;6014;47.690;9.130;2023-05-23T07:02:15;20.90;99.90
11908;DHT22;6014;47.690;9.130;2023-05-23T07:04:44;20.60;99.90
11908;DHT22;6014;47.690;9.130;2023-05-23T07:07:14;20.40;99.90
11908;DHT22;6014;47.690;9.130;2023-05-23T07:09:42;20.30;99.90
11908;DHT22;6014;47.690;9.130;2023-05-23T07:12:10;20.40;99.90
11908;DHT22;6014;47.690;9.130;2023-05-23T07:14:39;20.20;99.90
11908;DHT22;6014;47.690;9.130;2023-05-23T07:17:07;20.10;99.90
11908;DHT22;6014;47.690;9.130;2023-05-23T07:19:38;20.00;99.90
11908;DHT22;6014;47.690;9.130;2023-05-23T07:22:06;19.70;99.90
11908;DHT22;6014;47.690;9.130;2023-05-23T07:24:35;19.60;99.90
11908;DHT22;6014;47.690;9.130;2023-05-23T07:27:04;19.40;99.90
11908;DHT22;6014;47.690;9.130;2023-05-23T07:29:32;19.40;99.90
11908;DHT22;6014;47.690;9.130;2023-05-23T07:32:05;19.60;99.90
11908;DHT22;6014;47.690;9.130;2023-05-23T07:34:34;20.10;99.90
11908;DHT22;6014;47.690;9.130;2023-05-23T07:37:02;20.50;99.90
11908;DHT22;6014;47.690;9.130;2023-05-23T07:39:30;20.70;99.90
11908;DHT22;6014;47.690;9.130;2023-05-23T07:42:00;20.70;99.90
11908;DHT22;6014;47.690;9.130;2023-05-23T07:44:28;20.30;99.90
11908;DHT22;6014;47.690;9.130;2023-05-23T07:46:57;20.20;99.90
11908;DHT22;6014;47.690;9.130;2023-05-23T07:49:26;19.80;99.90
11908;DHT22;6014;47.690;9.130;2023-05-23T07:51:54;19.60;99.90
11908;DHT22;6014;47.690;9.130;2023-05-23T07:54:22;19.40;99.90
11908;DHT22;6014;47.690;9.130;2023-05-23T07:56:52;19.40;99.90
11908;DHT22;6014;47.690;9.130;2023-05-23T07:59:21;19.60;99.90
11908;DHT22;6014;47.690;9.130;2023-05-23T08:01:49;19.70;99.90
11908;DHT22;6014;47.690;9.130;2023-05-23T08:04:18;19.90;99.90
11908;DHT22;6014;47.690;9.130;2023-05-23T08:06:46;20.30;99.90
11908;DHT22;6014;47.690;9.130;2023-05-23T08:09:31;20.50;99.90
11908;DHT22;6014;47.690;9.130;2023-05-23T08:11:59;20.60;99.90
11908;DHT22;6014;47.690;9.130;2023-05-23T08:14:39;20.70;99.90
11908;DHT22;6014;47.690;9.130;2023-05-23T08:17:17;20.80;99.90
11908;DHT22;6014;47.690;9.130;2023-05-23T08:19:46;20.90;99.90
11908;DHT22;6014;47.690;9.130;2023-05-23T08:22:14;21.10;99.90
11908;DHT22;6014;47.690;9.130;2023-05-23T08:24:42;21.00;99.90
11908;DHT22;6014;47.690;9.130;2023-05-23T08:27:10;20.80;99.90
11908;DHT22;6014;47.690;9.130;2023-05-23T08:29:40;20.80;99.90
11908;DHT22;6014;47.690;9.130;2023-05-23T08:32:10;20.70;99.90
11908;DHT22;6014;47.690;9.130;2023-05-23T08:34:39;20.60;99.90
11908;DHT22;6014;47.690;9.130;2023-05-23T08:37:07;20.50;99.90
11908;DHT22;6014;47.690;9.130;2023-05-23T08:39:41;20.50;99.90
11908;DHT22;6014;47.690;9.130;2023-05-23T08:42:10;20.50;99.90
11908;DHT22;6014;47.690;9.130;2023-05-23T08:44:39;20.60;99.90
11908;DHT22;6014;47.690;9.130;2023-05-23T08:47:08;20.60;99.90
11908;DHT22;6014;47.690;9.130;2023-05-23T08:49:37;20.60;99.90
11908;DHT22;6014;47.690;9.130;2023-05-23T08:52:10;20.70;99.90
11908;DHT22;6014;47.690;9.130;2023-05-23T08:54:39;20.60;99.90
11908;DHT22;6014;47.690;9.130;2023-05-23T08:57:08;20.30;99.90
11908;DHT22;6014;47.690;9.130;2023-05-23T08:59:37;20.30;99.90
11908;DHT22;6014;47.690;9.130;2023-05-23T09:02:10;20.50;99.90
11908;DHT22;6014;47.690;9.130;2023-05-23T09:04:38;20.60;99.90
11908;DHT22;6014;47.690;9.130;2023-05-23T09:07:07;20.80;99.90
11908;DHT22;6014;47.690;9.130;2023-05-23T09:09:36;21.30;99.90
11908;DHT22;6014;47.690;9.130;2023-05-23T09:12:17;21.60;99.90
11908;DHT22;6014;47.690;9.130;2023-05-23T09:14:48;21.80;99.90
11908;DHT22;6014;47.690;9.130;2023-05-23T09:17:18;22.00;99.90
11908;DHT22;6014;47.690;9.130;2023-05-23T09:19:47;22.00;99.90
11908;DHT22;6014;47.690;9.130;2023-05-23T09:22:15;22.00;99.90
11908;DHT22;6014;47.690;9.130;2023-05-23T09:24:43;21.80;99.90
11908;DHT22;6014;47.690;9.130;2023-05-23T09:27:11;21.80;99.90
11908;DHT22;6014;47.690;9.130;2023-05-23T09:29:39;22.10;99.90
11908;DHT22;6014;47.690;9.130;2023-05-23T09:32:11;22.00;99.90
11908;DHT22;6014;47.690;9.130;2023-05-23T09:34:43;22.00;99.90
11908;DHT22;6014;47.690;9.130;2023-05-23T09:37:28;22.30;99.90
11908;DHT22;6014;47.690;9.130;2023-05-23T09:40:00;22.50;99.90
11908;DHT22;6014;47.690;9.130;2023-05-23T09:42:32;22.80;99.90
11908;DHT22;6014;47.690;9.130;2023-05-23T09:45:01;23.40;99.60
11908;DHT22;6014;47.690;9.130;2023-05-23T09:47:33;23.80;99.80
11908;DHT22;6014;47.690;9.130;2023-05-23T09:50:04;23.60;98.10
11908;DHT22;6014;47.690;9.130;2023-05-23T09:52:35;23.40;96.60
11908;DHT22;6014;47.690;9.130;2023-05-23T09:55:05;23.10;97.20
11908;DHT22;6014;47.690;9.130;2023-05-23T09:57:38;23.00;99.90
11908;DHT22;6014;47.690;9.130;2023-05-23T10:00:08;22.70;99.90
11908;DHT22;6014;47.690;9.130;2023-05-23T10:02:54;22.50;99.90
11908;DHT22;6014;47.690;9.130;2023-05-23T10:05:37;22.40;99.90
11908;DHT22;6014;47.690;9.130;2023-05-23T10:08:08;23.00;99.90
11908;DHT22;6014;47.690;9.130;2023-05-23T10:13:50;25.00;91.10
11908;DHT22;6014;47.690;9.130;2023-05-23T10:16:22;25.80;75.80
11908;DHT22;6014;47.690;9.130;2023-05-23T10:18:55;25.70;77.60
11908;DHT22;6014;47.690;9.130;2023-05-23T10:21:35;26.70;67.60
11908;DHT22;6014;47.690;9.130;2023-05-23T10:24:07;26.20;61.80
11908;DHT22;6014;47.690;9.130;2023-05-23T10:26:36;25.50;69.20
11908;DHT22;6014;47.690;9.130;2023-05-23T10:29:18;25.30;73.90
11908;DHT22;6014;47.690;9.130;2023-05-23T10:31:51;25.40;80.20
11908;DHT22;6014;47.690;9.130;2023-05-23T10:34:26;24.80;83.30
11908;DHT22;6014;47.690;9.130;2023-05-23T10:37:05;24.40;88.60
11908;DHT22;6014;47.690;9.130;2023-05-23T10:39:41;25.20;82.60
11908;DHT22;6014;47.690;9.130;2023-05-23T10:42:17;25.60;71.00
11908;DHT22;6014;47.690;9.130;2023-05-23T10:44:46;26.70;64.40
11908;DHT22;6014;47.690;9.130;2023-05-23T10:47:25;26.70;63.80
11908;DHT22;6014;47.690;9.130;2023-05-23T10:49:54;25.90;64.40
11908;DHT22;6014;47.690;9.130;2023-05-23T10:52:24;26.00;64.30
11908;DHT22;6014;47.690;9.130;2023-05-23T10:54:54;26.40;61.50
11908;DHT22;6014;47.690;9.130;2023-05-23T10:57:25;26.80;57.50
11908;DHT22;6014;47.690;9.130;2023-05-23T10:59:54;26.20;59.70
11908;DHT22;6014;47.690;9.130;2023-05-23T11:02:25;26.60;58.40
11908;DHT22;6014;47.690;9.130;2023-05-23T11:05:17;25.80;59.80
11908;DHT22;6014;47.690;9.130;2023-05-23T11:08:09;25.10;66.40
11908;DHT22;6014;47.690;9.130;2023-05-23T11:10:54;24.90;64.90
11908;DHT22;6014;47.690;9.130;2023-05-23T11:13:22;24.80;69.60
11908;DHT22;6014;47.690;9.130;2023-05-23T11:15:51;23.30;78.40
11908;DHT22;6014;47.690;9.130;2023-05-23T11:18:21;22.10;95.00
11908;DHT22;6014;47.690;9.130;2023-05-23T11:20:51;21.80;99.40
11908;DHT22;6014;47.690;9.130;2023-05-23T11:23:22;21.80;99.90
11908;DHT22;6014;47.690;9.130;2023-05-23T11:25:53;21.80;99.90
11908;DHT22;6014;47.690;9.130;2023-05-23T11:28:22;21.90;99.90
11908;DHT22;6014;47.690;9.130;2023-05-23T11:30:50;22.60;96.30
11908;DHT22;6014;47.690;9.130;2023-05-23T11:33:19;23.00;95.50
11908;DHT22;6014;47.690;9.130;2023-05-23T11:35:55;23.80;91.20
11908;DHT22;6014;47.690;9.130;2023-05-23T11:38:25;24.90;84.20
11908;DHT22;6014;47.690;9.130;2023-05-23T11:40:53;24.10;71.50
11908;DHT22;6014;47.690;9.130;2023-05-23T11:43:21;24.80;84.80
11908;DHT22;6014;47.690;9.130;2023-05-23T11:45:49;24.00;81.30
11908;DHT22;6014;47.690;9.130;2023-05-23T11:48:17;24.10;83.80
11908;DHT22;6014;47.690;9.130;2023-05-23T11:50:47;24.00;90.60
11908;DHT22;6014;47.690;9.130;2023-05-23T11:53:17;24.00;83.90
11908;DHT22;6014;47.690;9.130;2023-05-23T11:55:53;24.20;79.40
11908;DHT22;6014;47.690;9.130;2023-05-23T11:58:25;24.30;82.20
11908;DHT22;6014;47.690;9.130;2023-05-23T12:00:58;24.40;79.40
11908;DHT22;6014;47.690;9.130;2023-05-23T12:03:27;25.40;76.50
11908;DHT22;6014;47.690;9.130;2023-05-23T12:05:56;25.20;66.30
11908;DHT22;6014;47.690;9.130;2023-05-23T12:08:24;25.10;60.50
11908;DHT22;6014;47.690;9.130;2023-05-23T12:10:56;25.90;57.70
11908;DHT22;6014;47.690;9.130;2023-05-23T12:13:31;25.60;55.90
11908;DHT22;6014;47.690;9.130;2023-05-23T12:16:01;25.80;57.70
11908;DHT22;6014;47.690;9.130;2023-05-23T12:18:31;26.40;52.70
11908;DHT22;6014;47.690;9.130;2023-05-23T12:21:00;26.60;55.80
11908;DHT22;6014;47.690;9.130;2023-05-23T12:23:29;25.70;53.60
11908;DHT22;6014;47.690;9.130;2023-05-23T12:26:03;25.80;55.30
11908;DHT22;6014;47.690;9.130;2023-05-23T12:28:36;26.90;50.30
11908;DHT22;6014;47.690;9.130;2023-05-23T12:31:09;26.90;50.60
11908;DHT22;6014;47.690;9.130;2023-05-23T12:33:38;25.80;51.60
11908;DHT22;6014;47.690;9.130;2023-05-23T12:36:10;24.50;63.50
11908;DHT22;6014;47.690;9.130;2023-05-23T12:38:41;24.00;71.80
11908;DHT22;6014;47.690;9.130;2023-05-23T12:41:15;23.60;83.50
11908;DHT22;6014;47.690;9.130;2023-05-23T12:43:49;23.20;86.30
11908;DHT22;6014;47.690;9.130;2023-05-23T12:46:19;22.80;92.20
11908;DHT22;6014;47.690;9.130;2023-05-23T12:48:48;22.40;94.90
11908;DHT22;6014;47.690;9.130;2023-05-23T12:51:17;22.30;98.70
11908;DHT22;6014;47.690;9.130;2023-05-23T12:53:46;22.30;99.90
11908;DHT22;6014;47.690;9.130;2023-05-23T12:56:15;22.20;99.90
11908;DHT22;6014;47.690;9.130;2023-05-23T12:58:44;22.10;99.90
11908;DHT22;6014;47.690;9.130;2023-05-23T13:01:19;22.00;99.90
11908;DHT22;6014;47.690;9.130;2023-05-23T13:03:48;20.90;99.90
11908;DHT22;6014;47.690;9.130;2023-05-23T13:06:16;20.10;99.90
11908;DHT22;6014;47.690;9.130;2023-05-23T13:08:44;19.50;99.90
11908;DHT22;6014;47.690;9.130;2023-05-23T13:11:15;19.20;99.90
11908;DHT22;6014;47.690;9.130;2023-05-23T13:13:43;18.90;99.90
11908;DHT22;6014;47.690;9.130;2023-05-23T13:16:12;18.50;99.90
11908;DHT22;6014;47.690;9.130;2023-05-23T13:18:40;18.10;99.90
11908;DHT22;6014;47.690;9.130;2023-05-23T13:21:08;17.90;99.90
11908;DHT22;6014;47.690;9.130;2023-05-23T13:23:42;17.80;99.90
11908;DHT22;6014;47.690;9.130;2023-05-23T13:26:11;17.80;99.90
11908;DHT22;6014;47.690;9.130;2023-05-23T13:28:41;17.70;99.90
11908;DHT22;6014;47.690;9.130;2023-05-23T13:31:10;17.70;99.90
11908;DHT22;6014;47.690;9.130;2023-05-23T13:33:38;17.70;99.90
11908;DHT22;6014;47.690;9.130;2023-05-23T13:36:07;17.70;99.90
11908;DHT22;6014;47.690;9.130;2023-05-23T13:38:43;17.80;99.90
11908;DHT22;6014;47.690;9.130;2023-05-23T13:41:11;17.90;99.90
11908;DHT22;6014;47.690;9.130;2023-05-23T13:43:41;17.90;99.90
11908;DHT22;6014;47.690;9.130;2023-05-23T13:46:09;18.10;99.90
11908;DHT22;6014;47.690;9.130;2023-05-23T13:48:37;18.10;99.90
11908;DHT22;6014;47.690;9.130;2023-05-23T13:51:06;18.10;99.90
11908;DHT22;6014;47.690;9.130;2023-05-23T13:53:34;18.10;99.90
11908;DHT22;6014;47.690;9.130;2023-05-23T13:56:03;18.10;99.90
11908;DHT22;6014;47.690;9.130;2023-05-23T13:58:31;18.20;99.90
11908;DHT22;6014;47.690;9.130;2023-05-23T14:01:14;18.20;99.90
11908;DHT22;6014;47.690;9.130;2023-05-23T14:03:43;18.30;99.90
11908;DHT22;6014;47.690;9.130;2023-05-23T14:06:14;18.30;99.90
11908;DHT22;6014;47.690;9.130;2023-05-23T14:08:42;18.50;99.90
11908;DHT22;6014;47.690;9.130;2023-05-23T14:11:10;18.60;99.90
11908;DHT22;6014;47.690;9.130;2023-05-23T14:13:39;18.90;99.90
11908;DHT22;6014;47.690;9.130;2023-05-23T14:16:07;19.10;99.90
11908;DHT22;6014;47.690;9.130;2023-05-23T14:18:37;19.10;99.90
11908;DHT22;6014;47.690;9.130;2023-05-23T14:21:05;19.40;99.90
11908;DHT22;6014;47.690;9.130;2023-05-23T14:23:33;19.40;99.90
11908;DHT22;6014;47.690;9.130;2023-05-23T14:26:09;19.50;99.90
11908;DHT22;6014;47.690;9.130;2023-05-23T14:28:37;19.60;99.90
11908;DHT22;6014;47.690;9.130;2023-05-23T14:31:05;20.00;99.90
11908;DHT22;6014;47.690;9.130;2023-05-23T14:33:43;20.10;99.90
11908;DHT22;6014;47.690;9.130;2023-05-23T14:36:11;20.60;99.90
11908;DHT22;6014;47.690;9.130;2023-05-23T14:38:39;20.70;99.90
11908;DHT22;6014;47.690;9.130;2023-05-23T14:41:23;20.80;99.90
11908;DHT22;6014;47.690;9.130;2023-05-23T14:43:52;20.80;99.90
11908;DHT22;6014;47.690;9.130;2023-05-23T14:46:21;21.20;99.90
11908;DHT22;6014;47.690;9.130;2023-05-23T14:48:50;21.20;99.90
11908;DHT22;6014;47.690;9.130;2023-05-23T14:51:22;21.40;99.90
11908;DHT22;6014;47.690;9.130;2023-05-23T14:54:10;21.40;99.90
11908;DHT22;6014;47.690;9.130;2023-05-23T14:56:38;21.30;99.90
11908;DHT22;6014;47.690;9.130;2023-05-23T14:59:07;21.10;99.90
11908;DHT22;6014;47.690;9.130;2023-05-23T15:01:36;21.20;99.90
11908;DHT22;6014;47.690;9.130;2023-05-23T15:04:13;21.20;99.90
11908;DHT22;6014;47.690;9.130;2023-05-23T15:06:41;21.10;99.90
11908;DHT22;6014;47.690;9.130;2023-05-23T15:09:10;21.00;99.90
11908;DHT22;6014;47.690;9.130;2023-05-23T15:11:45;21.10;99.90
11908;DHT22;6014;47.690;9.130;2023-05-23T15:14:15;21.00;99.90
11908;DHT22;6014;47.690;9.130;2023-05-23T15:16:50;21.10;99.90
11908;DHT22;6014;47.690;9.130;2023-05-23T15:19:20;21.20;99.90
11908;DHT22;6014;47.690;9.130;2023-05-23T15:21:48;21.00;99.90
11908;DHT22;6014;47.690;9.130;2023-05-23T15:24:18;21.10;99.90
11908;DHT22;6014;47.690;9.130;2023-05-23T15:26:47;21.00;99.90
11908;DHT22;6014;47.690;9.130;2023-05-23T15:29:25;20.90;99.90
11908;DHT22;6014;47.690;9.130;2023-05-23T15:31:59;20.70;99.90
11908;DHT22;6014;47.690;9.130;2023-05-23T15:34:28;20.60;99.90
11908;DHT22;6014;47.690;9.130;2023-05-23T15:36:59;20.90;99.90
11908;DHT22;6014;47.690;9.130;2023-05-23T15:39:27;21.10;99.90
11908;DHT22;6014;47.690;9.130;2023-05-23T15:42:07;20.80;99.90
11908;DHT22;6014;47.690;9.130;2023-05-23T15:44:37;20.80;99.90
11908;DHT22;6014;47.690;9.130;2023-05-23T15:47:27;20.80;99.90
11908;DHT22;6014;47.690;9.130;2023-05-23T15:49:57;21.20;99.90
11908;DHT22;6014;47.690;9.130;2023-05-23T15:52:26;21.10;99.90
11908;DHT22;6014;47.690;9.130;2023-05-23T15:54:55;20.80;99.90
11908;DHT22;6014;47.690;9.130;2023-05-23T15:57:23;21.00;99.90
11908;DHT22;6014;47.690;9.130;2023-05-23T16:00:03;21.30;99.90
11908;DHT22;6014;47.690;9.130;2023-05-23T16:02:49;21.50;99.90
11908;DHT22;6014;47.690;9.130;2023-05-23T16:05:22;22.10;99.90
11908;DHT22;6014;47.690;9.130;2023-05-23T16:07:51;22.10;99.90
11908;DHT22;6014;47.690;9.130;2023-05-23T16:10:20;21.80;99.90
11908;DHT22;6014;47.690;9.130;2023-05-23T16:12:50;21.80;99.90
11908;DHT22;6014;47.690;9.130;2023-05-23T16:15:19;22.10;99.90
11908;DHT22;6014;47.690;9.130;2023-05-23T16:17:47;22.40;99.90
11908;DHT22;6014;47.690;9.130;2023-05-23T16:20:19;22.30;99.90
11908;DHT22;6014;47.690;9.130;2023-05-23T16:22:55;22.00;99.90
11908;DHT22;6014;47.690;9.130;2023-05-23T16:25:24;21.80;99.90
11908;DHT22;6014;47.690;9.130;2023-05-23T16:27:55;21.40;99.90
11908;DHT22;6014;47.690;9.130;2023-05-23T16:30:26;21.10;99.90
11908;DHT22;6014;47.690;9.130;2023-05-23T16:32:55;21.40;99.90
11908;DHT22;6014;47.690;9.130;2023-05-23T16:35:28;21.50;99.90
11908;DHT22;6014;47.690;9.130;2023-05-23T16:37:58;21.40;99.90
11908;DHT22;6014;47.690;9.130;2023-05-23T16:40:36;21.60;99.90
11908;DHT22;6014;47.690;9.130;2023-05-23T16:43:10;21.70;99.90